sensor_id;sensor_type;location;lat;lon;timestamp;pressure;altitude;pressure_sealevel;temperature;humidity
38852;BME280;24605;50.092;9.182;2023-05-02T00:00:57;97947.91;;;11.76;94.72
38852;BME280;24605;50.092;9.182;2023-05-02T00:03:26;97946.03;;;11.85;94.17
38852;BME280;24605;50.092;9.182;2023-05-02T00:05:52;97947.19;;;11.82;94.30
38852;BME280;24605;50.092;9.182;2023-05-02T00:08:19;97937.16;;;11.86;94.18
38852;BME280;24605;50.092;9.182;2023-05-02T00:10:48;97947.88;;;11.99;94.09
38852;BME280;24605;50.092;9.182;2023-05-02T00:13:14;97945.59;;;11.96;94.33
38852;BME280;24605;50.092;9.182;2023-05-02T00:15:41;97953.31;;;11.74;96.04
38852;BME280;24605;50.092;9.182;2023-05-02T00:18:07;97947.47;;;11.87;94.90
38852;BME280;24605;50.092;9.182;2023-05-02T00:20:34;97949.72;;;11.75;95.81
38852;BME280;24605;50.092;9.182;2023-05-02T00:23:00;97950.94;;;11.88;95.48
38852;BME280;24605;50.092;9.182;2023-05-02T00:25:27;97943.59;;;11.60;96.85
38852;BME280;24605;50.092;9.182;2023-05-02T00:27:55;97949.72;;;11.52;97.82
38852;BME280;24605;50.092;9.182;2023-05-02T00:30:21;97954.09;;;11.60;98.31
38852;BME280;24605;50.092;9.182;2023-05-02T00:32:48;97951.75;;;11.65;97.44
38852;BME280;24605;50.092;9.182;2023-05-02T00:35:14;97946.22;;;11.60;98.45
38852;BME280;24605;50.092;9.182;2023-05-02T00:37:41;97947.50;;;11.64;98.24
38852;BME280;24605;50.092;9.182;2023-05-02T00:40:08;97958.88;;;11.56;98.54
38852;BME280;24605;50.092;9.182;2023-05-02T00:42:34;97954.63;;;11.55;99.47
38852;BME280;24605;50.092;9.182;2023-05-02T00:45:03;97954.16;;;11.52;99.46
38852;BME280;24605;50.092;9.182;2023-05-02T00:47:30;97961.38;;;11.50;99.94
38852;BME280;24605;50.092;9.182;2023-05-02T00:49:57;97966.28;;;11.53;100.00
38852;BME280;24605;50.092;9.182;2023-05-02T00:52:25;97953.84;;;11.47;100.00
38852;BME280;24605;50.092;9.182;2023-05-02T00:54:52;97965.38;;;11.46;100.00
38852;BME280;24605;50.092;9.182;2023-05-02T00:57:19;97946.25;;;11.28;100.00
38852;BME280;24605;50.092;9.182;2023-05-02T00:59:46;97958.88;;;11.33;100.00
38852;BME280;24605;50.092;9.182;2023-05-02T01:02:24;97965.16;;;11.24;100.00
38852;BME280;24605;50.092;9.182;2023-05-02T01:05:01;97963.38;;;11.16;100.00
38852;BME280;24605;50.092;9.182;2023-05-02T01:07:59;97937.06;;;11.01;100.00
38852;BME280;24605;50.092;9.182;2023-05-02T01:10:33;97956.97;;;10.87;100.00
38852;BME280;24605;50.092;9.182;2023-05-02T01:13:06;97943.94;;;10.71;100.00
38852;BME280;24605;50.092;9.182;2023-05-02T01:15:36;97961.78;;;10.75;100.00
38852;BME280;24605;50.092;9.182;2023-05-02T01:18:08;97967.13;;;10.82;100.00
38852;BME280;24605;50.092;9.182;2023-05-02T01:20:37;97975.88;;;10.74;100.00
38852;BME280;24605;50.092;9.182;2023-05-02T01:23:11;97973.25;;;10.74;100.00
38852;BME280;24605;50.092;9.182;2023-05-02T01:25:44;97972.78;;;10.54;100.00
38852;BME280;24605;50.092;9.182;2023-05-02T01:28:23;97949.91;;;10.40;100.00
38852;BME280;24605;50.092;9.182;2023-05-02T01:30:55;97891.16;;;10.09;100.00
38852;BME280;24605;50.092;9.182;2023-05-02T01:33:23;97967.91;;;10.51;100.00
38852;BME280;24605;50.092;9.182;2023-05-02T01:35:51;97968.06;;;10.49;100.00
38852;BME280;24605;50.092;9.182;2023-05-02T01:38:19;97978.06;;;10.46;100.00
38852;BME280;24605;50.092;9.182;2023-05-02T01:40:49;97976.25;;;10.55;100.00
38852;BME280;24605;50.092;9.182;2023-05-02T01:43:17;97982.19;;;10.48;100.00
38852;BME280;24605;50.092;9.182;2023-05-02T01:45:47;97955.81;;;10.42;100.00
38852;BME280;24605;50.092;9.182;2023-05-02T01:48:18;97978.56;;;10.41;100.00
38852;BME280;24605;50.092;9.182;2023-05-02T01:50:46;97982.31;;;10.30;100.00
38852;BME280;24605;50.092;9.182;2023-05-02T01:53:15;97973.81;;;10.12;100.00
38852;BME280;24605;50.092;9.182;2023-05-02T01:55:43;97989.38;;;10.22;100.00
38852;BME280;24605;50.092;9.182;2023-05-02T01:58:12;97991.19;;;10.13;100.00
38852;BME280;24605;50.092;9.182;2023-05-02T02:00:39;98004.44;;;10.19;100.00
38852;BME280;24605;50.092;9.182;2023-05-02T02:03:09;98001.31;;;10.32;100.00
38852;BME280;24605;50.092;9.182;2023-05-02T02:05:39;98003.13;;;10.24;100.00
38852;BME280;24605;50.092;9.182;2023-05-02T02:08:06;98009.00;;;10.34;100.00
38852;BME280;24605;50.092;9.182;2023-05-02T02:10:35;98008.03;;;10.35;100.00
38852;BME280;24605;50.092;9.182;2023-05-02T02:13:12;98011.47;;;10.35;100.00
38852;BME280;24605;50.092;9.182;2023-05-02T02:15:43;97997.41;;;10.12;100.00
38852;BME280;24605;50.092;9.182;2023-05-02T02:18:17;98014.28;;;10.09;100.00
38852;BME280;24605;50.092;9.182;2023-05-02T02:20:47;97997.22;;;10.05;100.00
38852;BME280;24605;50.092;9.182;2023-05-02T02:23:16;98018.69;;;10.17;100.00
38852;BME280;24605;50.092;9.182;2023-05-02T02:25:45;98029.97;;;10.26;100.00
38852;BME280;24605;50.092;9.182;2023-05-02T02:28:12;98020.50;;;10.16;100.00
38852;BME280;24605;50.092;9.182;2023-05-02T02:30:38;98015.91;;;10.10;100.00
38852;BME280;24605;50.092;9.182;2023-05-02T02:33:05;98025.91;;;10.23;100.00
38852;BME280;24605;50.092;9.182;2023-05-02T02:35:36;98026.69;;;10.24;100.00
38852;BME280;24605;50.092;9.182;2023-05-02T02:38:12;98030.81;;;10.18;100.00
38852;BME280;24605;50.092;9.182;2023-05-02T02:40:43;98007.72;;;10.05;100.00
38852;BME280;24605;50.092;9.182;2023-05-02T02:43:18;98026.72;;;10.07;100.00
38852;BME280;24605;50.092;9.182;2023-05-02T02:45:53;98033.41;;;10.01;100.00
38852;BME280;24605;50.092;9.182;2023-05-02T02:48:31;98027.38;;;10.01;100.00
38852;BME280;24605;50.092;9.182;2023-05-02T02:51:07;98037.50;;;9.87;100.00
38852;BME280;24605;50.092;9.182;2023-05-02T02:53:51;98035.34;;;9.83;100.00
38852;BME280;24605;50.092;9.182;2023-05-02T02:56:25;98028.03;;;9.78;100.00
38852;BME280;24605;50.092;9.182;2023-05-02T02:58:56;98033.75;;;9.82;100.00
38852;BME280;24605;50.092;9.182;2023-05-02T03:01:26;98048.78;;;9.71;100.00
38852;BME280;24605;50.092;9.182;2023-05-02T03:03:57;98047.47;;;9.76;100.00
38852;BME280;24605;50.092;9.182;2023-05-02T03:06:24;98047.31;;;9.69;100.00
38852;BME280;24605;50.092;9.182;2023-05-02T03:08:52;98052.19;;;9.72;100.00
38852;BME280;24605;50.092;9.182;2023-05-02T03:11:19;98055.47;;;9.74;100.00
38852;BME280;24605;50.092;9.182;2023-05-02T03:13:45;98058.91;;;9.75;100.00
38852;BME280;24605;50.092;9.182;2023-05-02T03:16:36;98043.34;;;9.56;100.00
38852;BME280;24605;50.092;9.182;2023-05-02T03:19:03;98068.72;;;9.64;100.00
38852;BME280;24605;50.092;9.182;2023-05-02T03:21:30;98061.63;;;9.48;100.00
38852;BME280;24605;50.092;9.182;2023-05-02T03:23:59;98057.72;;;9.52;100.00
38852;BME280;24605;50.092;9.182;2023-05-02T03:26:26;98044.94;;;9.41;100.00
38852;BME280;24605;50.092;9.182;2023-05-02T03:28:53;98046.63;;;9.16;100.00
38852;BME280;24605;50.092;9.182;2023-05-02T03:31:19;98055.69;;;9.30;100.00
38852;BME280;24605;50.092;9.182;2023-05-02T03:33:46;98062.16;;;9.17;100.00
38852;BME280;24605;50.092;9.182;2023-05-02T03:36:13;98050.16;;;8.98;100.00
38852;BME280;24605;50.092;9.182;2023-05-02T03:38:40;98066.91;;;9.14;100.00
38852;BME280;24605;50.092;9.182;2023-05-02T03:41:08;98065.59;;;9.09;100.00
38852;BME280;24605;50.092;9.182;2023-05-02T03:43:34;98064.16;;;9.15;100.00
38852;BME280;24605;50.092;9.182;2023-05-02T03:46:06;98048.59;;;9.14;100.00
38852;BME280;24605;50.092;9.182;2023-05-02T03:48:33;98083.81;;;9.36;100.00
38852;BME280;24605;50.092;9.182;2023-05-02T03:51:01;98089.66;;;9.21;100.00
38852;BME280;24605;50.092;9.182;2023-05-02T03:53:28;98083.78;;;9.28;100.00
38852;BME280;24605;50.092;9.182;2023-05-02T03:55:54;98076.91;;;9.27;100.00
38852;BME280;24605;50.092;9.182;2023-05-02T03:58:22;98081.16;;;9.19;100.00
38852;BME280;24605;50.092;9.182;2023-05-02T04:00:49;98085.09;;;9.23;100.00
38852;BME280;24605;50.092;9.182;2023-05-02T04:03:17;98101.31;;;9.27;100.00
38852;BME280;24605;50.092;9.182;2023-05-02T04:05:43;98100.47;;;9.27;100.00
38852;BME280;24605;50.092;9.182;2023-05-02T04:08:10;98098.69;;;9.27;100.00
38852;BME280;24605;50.092;9.182;2023-05-02T04:10:37;98104.13;;;9.34;100.00
38852;BME280;24605;50.092;9.182;2023-05-02T04:13:04;98104.28;;;9.40;100.00
38852;BME280;24605;50.092;9.182;2023-05-02T04:15:32;98092.25;;;9.13;100.00
38852;BME280;24605;50.092;9.182;2023-05-02T04:17:59;98094.22;;;9.19;100.00
38852;BME280;24605;50.092;9.182;2023-05-02T04:20:25;98108.97;;;9.29;100.00
38852;BME280;24605;50.092;9.182;2023-05-02T04:22:52;98117.78;;;9.54;100.00
38852;BME280;24605;50.092;9.182;2023-05-02T04:25:18;98124.16;;;9.60;100.00
38852;BME280;24605;50.092;9.182;2023-05-02T04:27:45;98133.34;;;9.64;100.00
38852;BME280;24605;50.092;9.182;2023-05-02T04:30:11;98129.06;;;9.63;100.00
38852;BME280;24605;50.092;9.182;2023-05-02T04:32:40;98129.56;;;9.66;100.00
38852;BME280;24605;50.092;9.182;2023-05-02T04:35:07;98129.72;;;9.56;100.00
38852;BME280;24605;50.092;9.182;2023-05-02T04:37:34;98131.63;;;9.46;100.00
38852;BME280;24605;50.092;9.182;2023-05-02T04:40:00;98136.13;;;9.62;100.00
38852;BME280;24605;50.092;9.182;2023-05-02T04:42:27;98138.91;;;9.61;100.00
38852;BME280;24605;50.092;9.182;2023-05-02T04:44:54;98152.31;;;9.66;100.00
38852;BME280;24605;50.092;9.182;2023-05-02T04:47:20;98140.69;;;9.60;100.00
38852;BME280;24605;50.092;9.182;2023-05-02T04:49:48;98163.31;;;9.69;100.00
38852;BME280;24605;50.092;9.182;2023-05-02T04:52:15;98169.34;;;9.70;100.00
38852;BME280;24605;50.092;9.182;2023-05-02T04:54:42;98157.59;;;9.74;100.00
38852;BME280;24605;50.092;9.182;2023-05-02T04:57:09;98169.41;;;9.78;100.00
38852;BME280;24605;50.092;9.182;2023-05-02T04:59:36;98165.75;;;9.71;100.00
38852;BME280;24605;50.092;9.182;2023-05-02T05:02:03;98179.53;;;9.81;100.00
38852;BME280;24605;50.092;9.182;2023-05-02T05:04:29;98182.72;;;10.01;100.00
38852;BME280;24605;50.092;9.182;2023-05-02T05:06:57;98191.72;;;10.07;100.00
38852;BME280;24605;50.092;9.182;2023-05-02T05:09:23;98190.09;;;10.06;100.00
38852;BME280;24605;50.092;9.182;2023-05-02T05:11:50;98201.84;;;9.94;100.00
38852;BME280;24605;50.092;9.182;2023-05-02T05:14:16;98213.19;;;10.11;100.00
38852;BME280;24605;50.092;9.182;2023-05-02T05:16:43;98220.75;;;10.14;100.00
38852;BME280;24605;50.092;9.182;2023-05-02T05:19:09;98213.03;;;10.04;100.00
38852;BME280;24605;50.092;9.182;2023-05-02T05:21:36;98226.28;;;10.11;100.00
38852;BME280;24605;50.092;9.182;2023-05-02T05:24:04;98224.19;;;10.23;100.00
38852;BME280;24605;50.092;9.182;2023-05-02T05:26:30;98229.28;;;10.24;100.00
38852;BME280;24605;50.092;9.182;2023-05-02T05:28:57;98234.19;;;10.27;100.00
38852;BME280;24605;50.092;9.182;2023-05-02T05:31:23;98232.16;;;10.04;100.00
38852;BME280;24605;50.092;9.182;2023-05-02T05:33:50;98218.34;;;9.86;100.00
38852;BME280;24605;50.092;9.182;2023-05-02T05:36:16;98243.31;;;10.07;100.00
38852;BME280;24605;50.092;9.182;2023-05-02T05:38:43;98242.88;;;10.28;100.00
38852;BME280;24605;50.092;9.182;2023-05-02T05:41:11;98260.38;;;10.19;100.00
38852;BME280;24605;50.092;9.182;2023-05-02T05:43:38;98253.75;;;9.98;100.00
38852;BME280;24605;50.092;9.182;2023-05-02T05:46:04;98252.72;;;9.56;100.00
38852;BME280;24605;50.092;9.182;2023-05-02T05:48:31;98258.16;;;9.63;100.00
38852;BME280;24605;50.092;9.182;2023-05-02T05:50:57;98279.56;;;9.59;100.00
38852;BME280;24605;50.092;9.182;2023-05-02T05:53:28;98265.94;;;9.81;100.00
38852;BME280;24605;50.092;9.182;2023-05-02T05:55:54;98261.72;;;9.88;100.00
38852;BME280;24605;50.092;9.182;2023-05-02T05:58:23;98278.84;;;10.09;100.00
38852;BME280;24605;50.092;9.182;2023-05-02T06:00:49;98280.69;;;9.82;100.00
38852;BME280;24605;50.092;9.182;2023-05-02T06:03:16;98281.91;;;9.96;100.00
38852;BME280;24605;50.092;9.182;2023-05-02T06:05:42;98283.13;;;9.84;100.00
38852;BME280;24605;50.092;9.182;2023-05-02T06:08:09;98281.78;;;10.06;100.00
38852;BME280;24605;50.092;9.182;2023-05-02T06:10:35;98253.28;;;10.03;100.00
38852;BME280;24605;50.092;9.182;2023-05-02T06:13:02;98285.03;;;10.00;100.00
38852;BME280;24605;50.092;9.182;2023-05-02T06:15:32;98271.50;;;10.13;100.00
38852;BME280;24605;50.092;9.182;2023-05-02T06:17:58;98285.44;;;9.87;100.00
38852;BME280;24605;50.092;9.182;2023-05-02T06:20:25;98291.16;;;10.17;100.00
38852;BME280;24605;50.092;9.182;2023-05-02T06:22:51;98296.53;;;10.42;100.00
38852;BME280;24605;50.092;9.182;2023-05-02T06:25:18;98302.28;;;10.19;100.00
38852;BME280;24605;50.092;9.182;2023-05-02T06:27:44;98286.41;;;10.12;100.00
38852;BME280;24605;50.092;9.182;2023-05-02T06:30:12;98299.50;;;10.55;100.00
38852;BME280;24605;50.092;9.182;2023-05-02T06:32:39;98303.25;;;10.53;100.00
38852;BME280;24605;50.092;9.182;2023-05-02T06:35:08;98307.28;;;10.98;100.00
38852;BME280;24605;50.092;9.182;2023-05-02T06:37:35;98309.25;;;11.04;100.00
38852;BME280;24605;50.092;9.182;2023-05-02T06:40:02;98311.56;;;11.16;100.00
38852;BME280;24605;50.092;9.182;2023-05-02T06:42:29;98311.72;;;11.31;100.00
38852;BME280;24605;50.092;9.182;2023-05-02T06:44:55;98301.66;;;11.75;100.00
38852;BME280;24605;50.092;9.182;2023-05-02T06:47:22;98318.13;;;11.53;100.00
38852;BME280;24605;50.092;9.182;2023-05-02T06:49:50;98319.28;;;11.58;100.00
38852;BME280;24605;50.092;9.182;2023-05-02T06:52:17;98307.16;;;11.41;100.00
38852;BME280;24605;50.092;9.182;2023-05-02T06:54:43;98314.50;;;11.29;100.00
38852;BME280;24605;50.092;9.182;2023-05-02T06:57:10;98309.25;;;11.37;100.00
38852;BME280;24605;50.092;9.182;2023-05-02T06:59:36;98325.50;;;11.49;100.00
38852;BME280;24605;50.092;9.182;2023-05-02T07:02:03;98321.56;;;11.37;100.00
38852;BME280;24605;50.092;9.182;2023-05-02T07:04:29;98329.63;;;11.43;100.00
38852;BME280;24605;50.092;9.182;2023-05-02T07:06:57;98339.75;;;11.47;100.00
38852;BME280;24605;50.092;9.182;2023-05-02T07:09:23;98334.84;;;11.68;100.00
38852;BME280;24605;50.092;9.182;2023-05-02T07:11:50;98334.53;;;11.71;100.00
38852;BME280;24605;50.092;9.182;2023-05-02T07:14:16;98343.16;;;12.05;100.00
38852;BME280;24605;50.092;9.182;2023-05-02T07:16:45;98345.75;;;12.21;100.00
38852;BME280;24605;50.092;9.182;2023-05-02T07:19:11;98344.31;;;12.50;100.00
38852;BME280;24605;50.092;9.182;2023-05-02T07:21:38;98349.13;;;12.38;100.00
38852;BME280;24605;50.092;9.182;2023-05-02T07:24:05;98348.44;;;12.45;100.00
38852;BME280;24605;50.092;9.182;2023-05-02T07:26:32;98359.34;;;12.33;100.00
38852;BME280;24605;50.092;9.182;2023-05-02T07:28:58;98353.81;;;12.20;100.00
38852;BME280;24605;50.092;9.182;2023-05-02T07:31:25;98340.41;;;11.98;100.00
38852;BME280;24605;50.092;9.182;2023-05-02T07:33:51;98355.63;;;12.19;100.00
38852;BME280;24605;50.092;9.182;2023-05-02T07:36:18;98359.47;;;12.40;100.00
38852;BME280;24605;50.092;9.182;2023-05-02T07:38:44;98360.06;;;12.59;100.00
38852;BME280;24605;50.092;9.182;2023-05-02T07:41:12;98359.34;;;12.33;100.00
38852;BME280;24605;50.092;9.182;2023-05-02T07:43:39;98366.22;;;12.34;100.00
38852;BME280;24605;50.092;9.182;2023-05-02T07:46:06;98366.75;;;12.30;100.00
38852;BME280;24605;50.092;9.182;2023-05-02T07:48:32;98374.66;;;12.21;100.00
38852;BME280;24605;50.092;9.182;2023-05-02T07:51:05;98375.00;;;12.18;100.00
38852;BME280;24605;50.092;9.182;2023-05-02T07:53:32;98372.38;;;12.18;100.00
38852;BME280;24605;50.092;9.182;2023-05-02T07:55:58;98355.81;;;11.85;100.00
38852;BME280;24605;50.092;9.182;2023-05-02T07:58:26;98375.13;;;12.33;100.00
38852;BME280;24605;50.092;9.182;2023-05-02T08:00:53;98367.28;;;12.57;100.00
38852;BME280;24605;50.092;9.182;2023-05-02T08:03:19;98379.63;;;12.56;100.00
38852;BME280;24605;50.092;9.182;2023-05-02T08:05:48;98375.69;;;12.52;100.00
38852;BME280;24605;50.092;9.182;2023-05-02T08:08:15;98377.25;;;12.78;100.00
38852;BME280;24605;50.092;9.182;2023-05-02T08:10:41;98369.94;;;12.88;97.39
38852;BME280;24605;50.092;9.182;2023-05-02T08:13:08;98387.97;;;12.99;96.18
38852;BME280;24605;50.092;9.182;2023-05-02T08:15:36;98383.47;;;12.85;97.10
38852;BME280;24605;50.092;9.182;2023-05-02T08:18:03;98387.50;;;12.96;95.44
38852;BME280;24605;50.092;9.182;2023-05-02T08:20:29;98394.09;;;12.92;95.70
38852;BME280;24605;50.092;9.182;2023-05-02T08:22:55;98395.97;;;12.83;95.45
38852;BME280;24605;50.092;9.182;2023-05-02T08:25:22;98399.28;;;12.77;96.14
38852;BME280;24605;50.092;9.182;2023-05-02T08:27:48;98398.72;;;12.90;94.69
38852;BME280;24605;50.092;9.182;2023-05-02T08:30:15;98410.75;;;12.84;96.07
38852;BME280;24605;50.092;9.182;2023-05-02T08:32:44;98415.31;;;12.50;98.18
38852;BME280;24605;50.092;9.182;2023-05-02T08:35:11;98404.97;;;12.49;96.59
38852;BME280;24605;50.092;9.182;2023-05-02T08:37:38;98412.22;;;12.87;96.28
38852;BME280;24605;50.092;9.182;2023-05-02T08:40:06;98408.94;;;12.84;94.46
38852;BME280;24605;50.092;9.182;2023-05-02T08:42:36;98417.75;;;13.00;92.88
38852;BME280;24605;50.092;9.182;2023-05-02T08:45:08;98406.72;;;12.73;93.66
38852;BME280;24605;50.092;9.182;2023-05-02T08:47:37;98417.66;;;13.16;92.42
38852;BME280;24605;50.092;9.182;2023-05-02T08:50:07;98420.44;;;13.15;92.61
38852;BME280;24605;50.092;9.182;2023-05-02T08:52:34;98446.91;;;13.22;91.26
38852;BME280;24605;50.092;9.182;2023-05-02T08:55:02;98430.69;;;13.41;90.74
38852;BME280;24605;50.092;9.182;2023-05-02T08:57:29;98430.69;;;14.03;88.67
38852;BME280;24605;50.092;9.182;2023-05-02T08:59:56;98447.66;;;13.85;87.81
38852;BME280;24605;50.092;9.182;2023-05-02T09:02:29;98452.19;;;13.53;88.81
38852;BME280;24605;50.092;9.182;2023-05-02T09:05:00;98464.25;;;13.08;88.99
38852;BME280;24605;50.092;9.182;2023-05-02T09:07:43;98466.72;;;12.78;90.47
38852;BME280;24605;50.092;9.182;2023-05-02T09:10:10;98468.25;;;13.04;90.51
38852;BME280;24605;50.092;9.182;2023-05-02T09:12:37;98475.59;;;13.16;88.58
38852;BME280;24605;50.092;9.182;2023-05-02T09:15:10;98458.22;;;13.30;87.81
38852;BME280;24605;50.092;9.182;2023-05-02T09:17:39;98476.94;;;13.44;88.55
38852;BME280;24605;50.092;9.182;2023-05-02T09:20:06;98453.94;;;13.61;87.73
38852;BME280;24605;50.092;9.182;2023-05-02T09:22:33;98447.69;;;13.39;86.55
38852;BME280;24605;50.092;9.182;2023-05-02T09:25:01;98478.34;;;13.55;86.87
38852;BME280;24605;50.092;9.182;2023-05-02T09:27:28;98482.00;;;13.14;88.65
38852;BME280;24605;50.092;9.182;2023-05-02T09:30:17;98451.28;;;13.38;87.91
38852;BME280;24605;50.092;9.182;2023-05-02T09:32:44;98469.72;;;13.84;86.12
38852;BME280;24605;50.092;9.182;2023-05-02T09:35:11;98470.31;;;14.33;85.32
38852;BME280;24605;50.092;9.182;2023-05-02T09:37:38;98477.06;;;14.65;83.37
38852;BME280;24605;50.092;9.182;2023-05-02T09:40:07;98463.03;;;14.35;81.30
38852;BME280;24605;50.092;9.182;2023-05-02T09:42:34;98474.59;;;14.34;82.82
38852;BME280;24605;50.092;9.182;2023-05-02T09:45:01;98467.88;;;14.91;78.70
38852;BME280;24605;50.092;9.182;2023-05-02T09:47:27;98465.47;;;14.21;81.43
38852;BME280;24605;50.092;9.182;2023-05-02T09:49:54;98475.44;;;13.96;84.96
38852;BME280;24605;50.092;9.182;2023-05-02T09:52:21;98462.44;;;14.09;82.57
38852;BME280;24605;50.092;9.182;2023-05-02T09:54:47;98447.50;;;14.02;83.36
38852;BME280;24605;50.092;9.182;2023-05-02T09:57:18;98468.22;;;14.28;83.17
38852;BME280;24605;50.092;9.182;2023-05-02T09:59:55;98479.69;;;14.50;82.52
38852;BME280;24605;50.092;9.182;2023-05-02T10:02:23;98484.72;;;14.45;80.41
38852;BME280;24605;50.092;9.182;2023-05-02T10:04:50;98480.94;;;14.24;81.99
38852;BME280;24605;50.092;9.182;2023-05-02T10:07:19;98479.88;;;13.72;83.10
38852;BME280;24605;50.092;9.182;2023-05-02T10:09:47;98479.41;;;13.92;82.86
38852;BME280;24605;50.092;9.182;2023-05-02T10:12:15;98463.31;;;13.87;84.07
38852;BME280;24605;50.092;9.182;2023-05-02T10:14:48;98453.75;;;13.86;82.52
38852;BME280;24605;50.092;9.182;2023-05-02T10:17:21;98479.69;;;13.97;80.97
38852;BME280;24605;50.092;9.182;2023-05-02T10:19:53;98472.75;;;13.81;82.63
38852;BME280;24605;50.092;9.182;2023-05-02T10:22:22;98487.63;;;13.97;80.06
38852;BME280;24605;50.092;9.182;2023-05-02T10:24:51;98478.06;;;13.96;77.65
38852;BME280;24605;50.092;9.182;2023-05-02T10:27:18;98483.53;;;14.09;77.82
38852;BME280;24605;50.092;9.182;2023-05-02T10:29:46;98481.59;;;14.56;78.82
38852;BME280;24605;50.092;9.182;2023-05-02T10:32:15;98477.06;;;14.65;75.89
38852;BME280;24605;50.092;9.182;2023-05-02T10:34:42;98470.97;;;14.50;73.97
38852;BME280;24605;50.092;9.182;2023-05-02T10:37:10;98479.69;;;14.95;72.22
38852;BME280;24605;50.092;9.182;2023-05-02T10:39:36;98477.16;;;14.87;73.52
38852;BME280;24605;50.092;9.182;2023-05-02T10:42:04;98462.50;;;14.54;74.15
38852;BME280;24605;50.092;9.182;2023-05-02T10:44:32;98481.59;;;14.26;74.83
38852;BME280;24605;50.092;9.182;2023-05-02T10:47:02;98472.56;;;13.83;75.38
38852;BME280;24605;50.092;9.182;2023-05-02T10:49:49;98460.13;;;13.91;75.13
38852;BME280;24605;50.092;9.182;2023-05-02T10:52:27;98467.91;;;14.76;73.37
38852;BME280;24605;50.092;9.182;2023-05-02T10:55:14;98459.69;;;14.56;61.71
38852;BME280;24605;50.092;9.182;2023-05-02T11:00:45;98453.66;;;14.62;60.45
38852;BME280;24605;50.092;9.182;2023-05-02T11:03:12;98476.94;;;15.18;59.46
38852;BME280;24605;50.092;9.182;2023-05-02T11:06:03;98480.84;;;15.59;61.68
38852;BME280;24605;50.092;9.182;2023-05-02T11:08:30;98478.88;;;15.46;64.49
38852;BME280;24605;50.092;9.182;2023-05-02T11:14:02;98472.38;;;15.27;62.18
38852;BME280;24605;50.092;9.182;2023-05-02T11:17:05;98470.94;;;15.46;62.28
38852;BME280;24605;50.092;9.182;2023-05-02T11:22:33;98480.53;;;15.47;62.46
38852;BME280;24605;50.092;9.182;2023-05-02T11:24:59;98471.63;;;15.92;60.44
38852;BME280;24605;50.092;9.182;2023-05-02T11:27:38;98460.09;;;16.00;59.65
38852;BME280;24605;50.092;9.182;2023-05-02T11:30:08;98472.72;;;15.82;61.92
38852;BME280;24605;50.092;9.182;2023-05-02T11:33:10;98478.25;;;15.08;68.74
38852;BME280;24605;50.092;9.182;2023-05-02T11:35:40;98476.06;;;14.81;69.78
38852;BME280;24605;50.092;9.182;2023-05-02T11:38:10;98471.78;;;14.65;71.32
38852;BME280;24605;50.092;9.182;2023-05-02T11:40:37;98479.25;;;14.92;68.04
38852;BME280;24605;50.092;9.182;2023-05-02T11:43:11;98465.38;;;15.19;68.24
38852;BME280;24605;50.092;9.182;2023-05-02T11:45:39;98463.22;;;15.08;65.40
38852;BME280;24605;50.092;9.182;2023-05-02T11:48:07;98470.97;;;15.90;63.88
38852;BME280;24605;50.092;9.182;2023-05-02T11:50:40;98445.84;;;15.79;60.66
38852;BME280;24605;50.092;9.182;2023-05-02T11:53:10;98467.84;;;16.29;61.75
38852;BME280;24605;50.092;9.182;2023-05-02T11:55:43;98463.38;;;16.30;62.63
38852;BME280;24605;50.092;9.182;2023-05-02T11:58:14;98444.03;;;16.01;61.28
38852;BME280;24605;50.092;9.182;2023-05-02T12:00:42;98469.38;;;15.52;58.08
38852;BME280;24605;50.092;9.182;2023-05-02T12:03:18;98458.03;;;15.00;59.07
38852;BME280;24605;50.092;9.182;2023-05-02T12:05:46;98458.69;;;14.87;59.18
38852;BME280;24605;50.092;9.182;2023-05-02T12:08:21;98461.31;;;15.39;59.53
38852;BME280;24605;50.092;9.182;2023-05-02T12:10:49;98470.19;;;15.52;59.25
38852;BME280;24605;50.092;9.182;2023-05-02T12:13:17;98474.06;;;15.35;57.45
38852;BME280;24605;50.092;9.182;2023-05-02T12:15:44;98474.19;;;15.63;55.49
38852;BME280;24605;50.092;9.182;2023-05-02T12:18:11;98470.69;;;16.00;55.86
38852;BME280;24605;50.092;9.182;2023-05-02T12:20:39;98462.97;;;16.05;57.22
38852;BME280;24605;50.092;9.182;2023-05-02T12:23:06;98469.75;;;15.86;55.29
38852;BME280;24605;50.092;9.182;2023-05-02T12:25:38;98463.41;;;15.65;55.96
38852;BME280;24605;50.092;9.182;2023-05-02T12:28:05;98468.69;;;15.65;58.56
38852;BME280;24605;50.092;9.182;2023-05-02T12:30:32;98465.69;;;15.68;58.13
38852;BME280;24605;50.092;9.182;2023-05-02T12:33:00;98461.59;;;15.87;58.83
38852;BME280;24605;50.092;9.182;2023-05-02T12:35:28;98479.41;;;16.22;54.29
38852;BME280;24605;50.092;9.182;2023-05-02T12:38:08;98479.03;;;16.60;55.09
38852;BME280;24605;50.092;9.182;2023-05-02T12:40:34;98482.41;;;16.47;54.26
38852;BME280;24605;50.092;9.182;2023-05-02T12:43:03;98482.19;;;16.49;54.14
38852;BME280;24605;50.092;9.182;2023-05-02T12:45:32;98481.78;;;16.80;53.49
38852;BME280;24605;50.092;9.182;2023-05-02T12:47:59;98485.09;;;16.54;53.69
38852;BME280;24605;50.092;9.182;2023-05-02T12:50:36;98491.50;;;16.09;54.69
38852;BME280;24605;50.092;9.182;2023-05-02T12:53:03;98503.25;;;16.57;54.56
38852;BME280;24605;50.092;9.182;2023-05-02T12:55:30;98498.34;;;15.82;55.72
38852;BME280;24605;50.092;9.182;2023-05-02T12:58:00;98500.84;;;15.84;58.36
38852;BME280;24605;50.092;9.182;2023-05-02T13:00:30;98499.13;;;15.61;59.77
38852;BME280;24605;50.092;9.182;2023-05-02T13:02:57;98510.66;;;15.53;58.97
38852;BME280;24605;50.092;9.182;2023-05-02T13:05:23;98507.81;;;15.33;58.54
38852;BME280;24605;50.092;9.182;2023-05-02T13:07:50;98451.09;;;15.14;58.86
38852;BME280;24605;50.092;9.182;2023-05-02T13:10:17;98509.03;;;15.52;58.23
38852;BME280;24605;50.092;9.182;2023-05-02T13:12:43;98507.63;;;15.93;55.34
38852;BME280;24605;50.092;9.182;2023-05-02T13:15:11;98509.72;;;16.26;55.84